createdAt,value
2023-06-22T00:07:48.138Z,12.63
2023-06-22T00:15:53.524Z,11.93
2023-06-22T00:24:01.493Z,11.30
2023-06-22T00:32:07.645Z,11.43
2023-06-22T00:40:16.041Z,10.77
2023-06-22T00:48:22.112Z,10.55
2023-06-22T00:56:31.284Z,11.38
2023-06-22T01:04:40.695Z,10.80
2023-06-22T01:12:54.278Z,10.93
2023-06-22T01:21:01.171Z,11.15
2023-06-22T01:29:13.263Z,10.98
2023-06-22T01:37:19.702Z,11.10
2023-06-22T01:45:28.471Z,10.52
2023-06-22T01:53:33.943Z,10.15
2023-06-22T02:01:47.394Z,10.30
2023-06-22T02:09:55.512Z,10.88
2023-06-22T02:18:04.374Z,11.48
2023-06-22T02:26:09.974Z,10.73
2023-06-22T02:34:19.535Z,10.95
2023-06-22T02:42:25.085Z,10.32
2023-06-22T02:50:33.173Z,9.80
2023-06-22T02:58:40.024Z,10.25
2023-06-22T03:06:52.668Z,10.68
2023-06-22T03:14:59.414Z,10.60
2023-06-22T03:23:07.471Z,10.95
2023-06-22T03:31:13.471Z,9.98
2023-06-22T03:39:22.649Z,10.93
2023-06-22T03:47:28.381Z,10.88
2023-06-22T03:55:39.500Z,9.52
2023-06-22T04:03:46.151Z,10.98
2023-06-22T04:11:55.306Z,10.77
2023-06-22T04:20:00.793Z,10.00
2023-06-22T04:28:13.901Z,9.43
2023-06-22T04:36:19.359Z,10.85
2023-06-22T04:44:28.223Z,12.02
2023-06-22T04:52:33.726Z,12.23
2023-06-22T05:00:41.806Z,12.55
2023-06-22T05:08:47.241Z,12.80
2023-06-22T05:16:59.906Z,11.32
2023-06-22T05:25:05.471Z,10.95
2023-06-22T05:33:13.648Z,10.50
2023-06-22T05:41:19.006Z,10.25
2023-06-22T05:49:30.930Z,10.68
2023-06-22T05:57:36.643Z,11.33
2023-06-22T06:05:46.454Z,10.30
2023-06-22T06:13:52.157Z,11.10
2023-06-22T06:22:01.635Z,10.57
2023-06-22T06:30:07.886Z,9.27
2023-06-22T06:38:16.046Z,10.20
2023-06-22T06:46:22.194Z,9.70
2023-06-22T06:54:30.357Z,10.50
2023-06-22T07:02:35.973Z,10.18
2023-06-22T07:10:44.163Z,10.45
2023-06-22T07:18:50.385Z,9.88
2023-06-22T07:27:00.383Z,9.52
2023-06-22T07:35:06.685Z,9.40
2023-06-22T07:43:14.907Z,10.32
2023-06-22T07:51:20.682Z,9.30
2023-06-22T07:59:29.309Z,11.45
2023-06-22T08:07:34.872Z,10.65
2023-06-22T08:15:54.149Z,9.98
2023-06-22T08:23:59.683Z,10.52
2023-06-22T08:32:08.594Z,10.02
2023-06-22T08:40:15.241Z,10.55
2023-06-22T08:48:23.230Z,10.55
2023-06-22T08:56:28.732Z,10.75
2023-06-22T09:04:37.204Z,10.75
2023-06-22T09:12:44.159Z,9.88
2023-06-22T09:20:52.771Z,10.77
2023-06-22T09:29:41.560Z,12.07
2023-06-22T09:38:05.347Z,11.48
2023-06-22T09:46:10.912Z,12.13
2023-06-22T09:54:18.919Z,11.07
2023-06-22T10:02:24.524Z,14.27
2023-06-22T10:11:04.686Z,10.30
2023-06-22T10:28:39.903Z,5.80
2023-06-22T10:36:47.588Z,5.22
2023-06-22T10:44:55.538Z,4.38
2023-06-22T10:53:01.906Z,5.68
2023-06-22T11:01:14.859Z,6.13
2023-06-22T11:09:32.492Z,6.90
2023-06-22T11:17:40.548Z,6.35
2023-06-22T11:25:46.014Z,6.47
2023-06-22T11:33:55.023Z,6.32
2023-06-22T11:42:00.429Z,6.50
2023-06-22T11:50:09.886Z,7.80
2023-06-22T11:58:15.224Z,7.07
2023-06-22T12:06:23.166Z,6.93
2023-06-22T12:14:30.392Z,6.60
2023-06-22T12:22:39.209Z,6.60
2023-06-22T12:30:44.566Z,6.45
2023-06-22T12:38:54.274Z,6.10
2023-06-22T12:46:59.846Z,4.97
2023-06-22T12:55:08.561Z,4.75
2023-06-22T13:12:04.144Z,4.83
2023-06-22T13:28:27.926Z,4.75
2023-06-22T13:36:34.676Z,5.30
2023-06-22T13:44:42.598Z,4.80
2023-06-22T13:52:48.037Z,5.53
2023-06-22T14:00:57.086Z,5.07
2023-06-22T14:09:02.736Z,4.75
2023-06-22T14:17:10.798Z,4.13
2023-06-22T14:25:16.198Z,4.50
2023-06-22T14:33:24.254Z,4.70
2023-06-22T14:41:29.652Z,5.70
2023-06-22T14:49:38.120Z,5.40
2023-06-22T14:57:43.604Z,5.53
2023-06-22T15:05:51.687Z,5.10
2023-06-22T15:13:57.100Z,6.38
2023-06-22T15:22:05.152Z,6.43
2023-06-22T15:30:11.895Z,5.97
2023-06-22T15:38:19.919Z,6.20
2023-06-22T15:46:25.527Z,6.45
2023-06-22T15:54:33.620Z,5.90
2023-06-22T16:02:39.187Z,5.50
2023-06-22T16:10:47.232Z,6.47
2023-06-22T16:18:53.024Z,6.20
2023-06-22T16:27:00.991Z,5.57
2023-06-22T16:35:07.577Z,5.30
2023-06-22T16:43:15.724Z,6.47
2023-06-22T16:51:21.245Z,6.00
2023-06-22T16:59:29.381Z,6.28
2023-06-22T17:07:37.862Z,6.47
2023-06-22T17:15:47.301Z,6.45
2023-06-22T17:23:55.149Z,8.35
2023-06-22T17:32:03.605Z,7.63
2023-06-22T17:40:18.485Z,8.50
2023-06-22T17:48:26.556Z,8.45
2023-06-22T17:56:32.233Z,6.63
2023-06-22T18:04:40.318Z,6.88
2023-06-22T18:12:47.267Z,12.95
2023-06-22T18:20:56.093Z,10.55
2023-06-22T18:29:01.529Z,12.20
2023-06-22T18:37:13.114Z,8.15
2023-06-22T18:45:27.334Z,7.33
2023-06-22T18:53:35.936Z,14.32
2023-06-22T19:01:41.437Z,8.60
2023-06-22T19:10:24.351Z,7.22
2023-06-22T19:18:35.397Z,7.95
2023-06-22T19:26:54.745Z,7.30
2023-06-22T19:35:01.570Z,8.18
2023-06-22T19:43:10.743Z,8.65
2023-06-22T19:51:16.280Z,8.23
2023-06-22T19:59:32.123Z,9.52
2023-06-22T20:07:44.643Z,8.60
2023-06-22T20:15:53.533Z,8.02
2023-06-22T20:23:59.307Z,9.00
2023-06-22T20:32:14.438Z,7.97
2023-06-22T20:40:32.237Z,8.68
2023-06-22T20:48:43.576Z,8.68
2023-06-22T20:56:51.023Z,9.00
2023-06-22T21:04:59.348Z,8.63
2023-06-22T21:13:04.930Z,9.60
2023-06-22T21:21:13.141Z,9.90
2023-06-22T21:29:18.502Z,8.68
2023-06-22T21:37:27.982Z,10.48
2023-06-22T21:45:33.904Z,9.55
2023-06-22T21:53:42.366Z,8.82
2023-06-22T22:01:47.821Z,8.05
2023-06-22T22:09:56.359Z,8.60
2023-06-22T22:18:05.647Z,8.75
2023-06-22T22:26:15.231Z,8.60
2023-06-22T22:34:21.774Z,8.60
2023-06-22T22:42:29.809Z,8.95
2023-06-22T22:50:35.284Z,8.25
2023-06-22T22:58:45.363Z,9.55
2023-06-22T23:06:51.825Z,8.93
2023-06-22T23:15:00.222Z,9.98
2023-06-22T23:23:05.617Z,10.50
2023-06-22T23:31:13.713Z,10.45
2023-06-22T23:39:20.855Z,11.20
2023-06-22T23:47:30.307Z,12.40
2023-06-22T23:55:35.891Z,10.63
